createdAt,value
2018-08-20T00:00:45.218Z,19.71
2018-08-20T00:01:55.116Z,19.65
2018-08-20T00:03:05.276Z,19.7
2018-08-20T00:04:15.439Z,19.63
2018-08-20T00:05:25.315Z,19.65
2018-08-20T00:06:36.122Z,19.58
2018-08-20T00:07:46.269Z,19.5
2018-08-20T00:08:56.223Z,19.5
2018-08-20T00:10:06.127Z,19.58
2018-08-20T00:11:16.276Z,19.46
2018-08-20T00:12:26.457Z,19.43
2018-08-20T00:13:36.610Z,19.42
2018-08-20T00:14:46.790Z,19.33
2018-08-20T00:15:56.947Z,19.25
2018-08-20T00:17:07.135Z,19.28
2018-08-20T00:18:17.261Z,19.28
2018-08-20T00:19:27.433Z,19.3
2018-08-20T00:20:37.556Z,19.3
2018-08-20T00:21:47.710Z,19.25
2018-08-20T00:22:58.934Z,19.24
2018-08-20T00:24:09.096Z,19.28
2018-08-20T00:25:18.878Z,19.24
2018-08-20T00:26:29.033Z,19.21
2018-08-20T00:27:39.224Z,19.15
2018-08-20T00:28:49.116Z,19.19
2018-08-20T00:29:59.268Z,19.19
2018-08-20T00:31:09.413Z,19.13
2018-08-20T00:32:19.545Z,19.15
2018-08-20T00:33:29.664Z,19.15
2018-08-20T00:34:39.829Z,19.09
2018-08-20T00:35:49.952Z,19.18
2018-08-20T00:37:00.112Z,19.06
2018-08-20T00:38:10.240Z,19.08
2018-08-20T00:39:20.372Z,19.03
2018-08-20T00:40:30.065Z,19
2018-08-20T00:41:40.207Z,18.94
2018-08-20T00:42:51.339Z,18.97
2018-08-20T00:44:01.290Z,19.05
2018-08-20T00:45:11.243Z,18.93
2018-08-20T00:46:21.415Z,19.09
2018-08-20T00:47:31.590Z,19.06
2018-08-20T00:48:41.739Z,19.13
2018-08-20T00:49:51.873Z,19.13
2018-08-20T00:51:01.993Z,19.13
2018-08-20T00:52:12.134Z,19.12
2018-08-20T00:53:22.281Z,19.18
2018-08-20T00:54:32.413Z,19.16
2018-08-20T00:55:42.529Z,19.18
2018-08-20T00:56:52.342Z,19.13
2018-08-20T00:58:02.660Z,19.15
2018-08-20T00:59:12.524Z,19.15
2018-08-20T01:00:22.643Z,19.18
2018-08-20T01:01:32.769Z,19.13
2018-08-20T01:02:42.982Z,19.19
2018-08-20T01:03:53.193Z,19.16
2018-08-20T01:05:03.372Z,19.19
2018-08-20T01:06:13.409Z,19.18
2018-08-20T01:07:23.538Z,19.16
2018-08-20T01:08:33.696Z,19.28
2018-08-20T01:09:43.826Z,19.24
2018-08-20T01:10:53.688Z,19.23
2018-08-20T01:12:03.817Z,19.12
2018-08-20T01:13:13.690Z,19.18
2018-08-20T01:14:23.817Z,19.13
2018-08-20T01:15:33.735Z,19.18
2018-08-20T01:16:43.876Z,19.19
2018-08-20T01:17:53.998Z,19.21
2018-08-20T01:19:04.150Z,19.19
2018-08-20T01:20:15.247Z,19.12
2018-08-20T01:21:25.479Z,19.21
2018-08-20T01:22:35.740Z,19.16
2018-08-20T01:23:45.677Z,19.23
2018-08-20T01:24:55.578Z,19.15
2018-08-20T01:26:05.759Z,19.27
2018-08-20T01:27:15.881Z,19.15
2018-08-20T01:28:26.025Z,19.13
2018-08-20T01:29:35.888Z,19.16
2018-08-20T01:30:46.007Z,19.15
2018-08-20T01:31:56.160Z,19.13
2018-08-20T01:33:06.296Z,19.18
2018-08-20T01:34:16.595Z,19.19
2018-08-20T01:35:26.517Z,19.18
2018-08-20T01:36:36.685Z,19.16
2018-08-20T01:37:46.812Z,19.08
2018-08-20T01:38:56.938Z,19.12
2018-08-20T01:40:07.163Z,19.1
2018-08-20T01:41:17.337Z,19.09
2018-08-20T01:42:27.570Z,19.06
2018-08-20T01:43:37.432Z,19.13
2018-08-20T01:44:47.587Z,19.02
2018-08-20T01:45:57.774Z,19.05
2018-08-20T01:47:07.976Z,19.15
2018-08-20T01:48:18.105Z,19.12
2018-08-20T01:49:28.041Z,19.13
2018-08-20T01:50:38.175Z,19.08
2018-08-20T01:51:48.372Z,19.09
2018-08-20T01:52:58.506Z,19.06
2018-08-20T01:54:08.379Z,19.13
2018-08-20T01:55:18.591Z,19.05
2018-08-20T01:56:28.793Z,19
2018-08-20T01:57:39.023Z,19.05
2018-08-20T01:58:49.241Z,19.02
2018-08-20T01:59:59.413Z,19.05
2018-08-20T02:01:09.296Z,19.03
2018-08-20T02:02:19.468Z,19.08
2018-08-20T02:03:29.341Z,19.03
2018-08-20T02:04:39.105Z,19.05
2018-08-20T02:05:50.163Z,18.98
2018-08-20T02:07:00.046Z,18.97
2018-08-20T02:08:09.567Z,18.97
2018-08-20T02:09:19.775Z,18.97
2018-08-20T02:10:29.967Z,18.93
2018-08-20T02:11:40.177Z,18.97
2018-08-20T02:12:50.128Z,18.94
2018-08-20T02:14:00.309Z,18.94
2018-08-20T02:15:10.472Z,18.93
2018-08-20T02:16:20.671Z,18.91
2018-08-20T02:17:30.286Z,18.91
2018-08-20T02:18:40.145Z,18.8
2018-08-20T02:19:50.446Z,18.84
2018-08-20T02:21:00.361Z,18.84
2018-08-20T02:22:10.244Z,18.86
2018-08-20T02:23:20.127Z,18.84
2018-08-20T02:24:30.279Z,18.84
2018-08-20T02:25:39.651Z,18.78
2018-08-20T02:26:49.510Z,18.86
2018-08-20T02:27:59.631Z,18.82
2018-08-20T02:29:09.755Z,18.73
2018-08-20T02:30:20.118Z,18.71
2018-08-20T02:31:30.250Z,18.69
2018-08-20T02:32:40.417Z,18.71
2018-08-20T02:33:50.546Z,18.67
2018-08-20T02:35:00.803Z,18.62
2018-08-20T02:36:11.746Z,18.59
2018-08-20T02:37:21.906Z,18.56
2018-08-20T02:38:32.030Z,18.59
2018-08-20T02:39:42.184Z,18.57
2018-08-20T02:40:52.206Z,18.53
2018-08-20T02:42:02.331Z,18.56
2018-08-20T02:43:12.293Z,18.6
2018-08-20T02:44:22.506Z,18.52
2018-08-20T02:45:32.635Z,18.53
2018-08-20T02:46:42.607Z,18.57
2018-08-20T02:47:52.784Z,18.56
2018-08-20T02:49:02.997Z,18.57
2018-08-20T02:50:13.142Z,18.53
2018-08-20T02:51:23.358Z,18.49
2018-08-20T02:52:33.742Z,18.42
2018-08-20T02:53:43.885Z,18.52
2018-08-20T02:54:54.031Z,18.4
2018-08-20T02:56:03.923Z,18.41
2018-08-20T02:57:13.784Z,18.42
2018-08-20T02:58:23.906Z,18.34
2018-08-20T02:59:34.023Z,18.37
2018-08-20T03:00:44.203Z,18.37
2018-08-20T03:01:54.375Z,18.34
2018-08-20T03:03:04.669Z,18.44
2018-08-20T03:04:14.943Z,18.37
2018-08-20T03:05:25.184Z,18.4
2018-08-20T03:06:35.305Z,18.28
2018-08-20T03:07:45.532Z,18.28
2018-08-20T03:08:55.392Z,18.25
2018-08-20T03:10:05.297Z,18.31
2018-08-20T03:11:15.418Z,18.26
2018-08-20T03:12:25.552Z,18.28
2018-08-20T03:13:35.677Z,18.3
2018-08-20T03:14:45.458Z,18.26
2018-08-20T03:15:55.630Z,18.28
2018-08-20T03:17:05.859Z,18.28
2018-08-20T03:18:15.532Z,18.2
2018-08-20T03:19:25.692Z,18.32
2018-08-20T03:20:36.537Z,18.28
2018-08-20T03:21:46.671Z,18.26
2018-08-20T03:22:56.540Z,18.25
2018-08-20T03:24:06.683Z,18.3
2018-08-20T03:25:16.999Z,18.31
2018-08-20T03:26:27.177Z,18.26
2018-08-20T03:27:37.354Z,18.3
2018-08-20T03:28:47.260Z,18.32
2018-08-20T03:29:57.396Z,18.38
2018-08-20T03:31:07.663Z,18.31
2018-08-20T03:32:17.832Z,18.3
2018-08-20T03:33:27.980Z,18.35
2018-08-20T03:34:38.211Z,18.38
2018-08-20T03:35:48.393Z,18.41
2018-08-20T03:36:58.603Z,18.35
2018-08-20T03:38:08.480Z,18.32
2018-08-20T03:39:18.668Z,18.32
2018-08-20T03:40:28.818Z,18.38
2018-08-20T03:41:39.060Z,18.38
2018-08-20T03:42:49.338Z,18.35
2018-08-20T03:43:59.591Z,18.34
2018-08-20T03:45:09.754Z,18.38
2018-08-20T03:46:19.885Z,18.31
2018-08-20T03:47:31.020Z,18.37
2018-08-20T03:48:41.143Z,18.4
2018-08-20T03:49:51.328Z,18.3
2018-08-20T03:51:01.499Z,18.37
2018-08-20T03:52:11.625Z,18.38
2018-08-20T03:53:21.768Z,18.34
2018-08-20T03:54:32.092Z,18.23
2018-08-20T03:55:42.221Z,18.28
2018-08-20T03:56:52.004Z,18.28
2018-08-20T03:58:01.875Z,18.23
2018-08-20T03:59:11.781Z,18.17
2018-08-20T04:00:22.026Z,18.13
2018-08-20T04:01:31.908Z,18.1
2018-08-20T04:02:41.782Z,18.1
2018-08-20T04:03:51.706Z,18.13
2018-08-20T04:05:02.219Z,18.16
2018-08-20T04:06:12.885Z,18.1
2018-08-20T04:07:23.060Z,18.1
2018-08-20T04:08:33.248Z,18.13
2018-08-20T04:09:43.122Z,18.13
2018-08-20T04:10:53.293Z,18.04
2018-08-20T04:12:03.423Z,18.09
2018-08-20T04:13:13.546Z,18.05
2018-08-20T04:14:23.792Z,18.09
2018-08-20T04:15:34.038Z,18.04
2018-08-20T04:16:44.260Z,18.05
2018-08-20T04:17:54.414Z,17.97
2018-08-20T04:19:04.635Z,17.98
2018-08-20T04:20:14.754Z,18.01
2018-08-20T04:21:25.851Z,18
2018-08-20T04:22:36.014Z,18.13
2018-08-20T04:23:46.362Z,18.13
2018-08-20T04:24:56.497Z,18.12
2018-08-20T04:26:06.595Z,18.07
2018-08-20T04:27:16.811Z,18.07
2018-08-20T04:28:26.978Z,18.1
2018-08-20T04:29:38.257Z,18.09
2018-08-20T04:30:48.977Z,18.1
2018-08-20T04:31:59.101Z,18.09
2018-08-20T04:33:09.289Z,18.1
2018-08-20T04:34:19.180Z,18.12
2018-08-20T04:35:29.313Z,18.12
2018-08-20T04:36:39.808Z,18.1
2018-08-20T04:37:49.991Z,18.16
2018-08-20T04:39:00.129Z,18.19
2018-08-20T04:40:10.270Z,18.17
2018-08-20T04:41:20.411Z,18.26
2018-08-20T04:42:30.318Z,18.34
2018-08-20T04:43:40.458Z,18.37
2018-08-20T04:44:50.232Z,18.38
2018-08-20T04:46:00.133Z,18.38
2018-08-20T04:47:10.260Z,18.46
2018-08-20T04:48:20.165Z,18.44
2018-08-20T04:49:30.553Z,18.37
2018-08-20T04:50:40.961Z,18.56
2018-08-20T04:51:51.637Z,18.6
2018-08-20T04:53:01.768Z,18.56
2018-08-20T04:54:11.916Z,18.59
2018-08-20T04:55:22.057Z,18.6
2018-08-20T04:56:31.971Z,18.65
2018-08-20T04:57:41.862Z,18.67
2018-08-20T04:58:52.276Z,18.71
2018-08-20T05:00:02.469Z,18.79
2018-08-20T05:01:12.614Z,18.78
2018-08-20T05:02:22.770Z,18.87
2018-08-20T05:03:32.918Z,18.86
2018-08-20T05:04:43.062Z,18.87
2018-08-20T05:05:53.227Z,18.91
2018-08-20T05:07:03.439Z,18.86
2018-08-20T05:08:13.651Z,18.91
2018-08-20T05:09:23.814Z,18.8
2018-08-20T05:10:34.032Z,18.84
2018-08-20T05:11:44.293Z,18.8
2018-08-20T05:12:54.078Z,18.69
2018-08-20T05:14:04.231Z,18.71
2018-08-20T05:15:14.356Z,18.65
2018-08-20T05:16:24.627Z,18.59
2018-08-20T05:17:34.823Z,18.57
2018-08-20T05:18:45.025Z,18.56
2018-08-20T05:19:55.022Z,18.52
2018-08-20T05:21:05.145Z,18.56
2018-08-20T05:22:15.032Z,18.49
2018-08-20T05:23:25.157Z,18.56
2018-08-20T05:24:35.292Z,18.52
2018-08-20T05:25:45.057Z,18.53
2018-08-20T05:26:55.209Z,18.4
2018-08-20T05:28:05.369Z,18.44
2018-08-20T05:29:15.733Z,18.42
2018-08-20T05:30:25.990Z,18.42
2018-08-20T05:31:36.176Z,18.56
2018-08-20T05:32:46.301Z,18.57
2018-08-20T05:33:56.475Z,18.63
2018-08-20T05:35:06.624Z,18.63
2018-08-20T05:36:16.763Z,18.69
2018-08-20T05:37:26.890Z,18.72
2018-08-20T05:38:36.891Z,18.67
2018-08-20T05:39:47.022Z,18.82
2018-08-20T05:40:56.910Z,18.78
2018-08-20T05:42:07.358Z,18.87
2018-08-20T05:43:17.471Z,18.95
2018-08-20T05:44:27.694Z,18.98
2018-08-20T05:45:37.829Z,19.13
2018-08-20T05:46:47.707Z,19.21
2018-08-20T05:47:57.837Z,19.23
2018-08-20T05:49:07.980Z,19.16
2018-08-20T05:50:18.173Z,19.23
2018-08-20T05:51:27.950Z,19.31
2018-08-20T05:52:38.282Z,19.31
2018-08-20T05:53:48.811Z,19.53
2018-08-20T05:54:59.004Z,19.53
2018-08-20T05:56:09.150Z,19.68
2018-08-20T05:57:19.155Z,19.71
2018-08-20T05:58:29.300Z,19.67
2018-08-20T05:59:39.435Z,19.82
2018-08-20T06:00:49.644Z,19.85
2018-08-20T06:01:59.577Z,19.92
2018-08-20T06:03:09.727Z,20.04
2018-08-20T06:04:19.890Z,20.05
2018-08-20T06:05:30.060Z,20.12
2018-08-20T06:06:40.259Z,20.14
2018-08-20T06:07:50.582Z,20.17
2018-08-20T06:09:00.944Z,20.31
2018-08-20T06:10:11.121Z,20.27
2018-08-20T06:11:21.238Z,20.26
2018-08-20T06:12:31.377Z,20.34
2018-08-20T06:13:41.628Z,20.3
2018-08-20T06:14:51.821Z,20.38
2018-08-20T06:16:01.975Z,20.43
2018-08-20T06:17:12.255Z,20.45
2018-08-20T06:18:22.503Z,20.48
2018-08-20T06:19:32.381Z,20.45
2018-08-20T06:20:42.536Z,20.48
2018-08-20T06:21:52.716Z,20.48
2018-08-20T06:23:02.582Z,20.53
2018-08-20T06:24:12.486Z,20.64
2018-08-20T06:25:22.675Z,20.6
2018-08-20T06:26:32.865Z,20.67
2018-08-20T06:27:43.012Z,20.66
2018-08-20T06:28:53.151Z,20.68
2018-08-20T06:30:03.018Z,20.72
2018-08-20T06:31:13.167Z,20.75
2018-08-20T06:32:23.304Z,20.75
2018-08-20T06:33:33.448Z,20.76
2018-08-20T06:34:43.619Z,20.73
2018-08-20T06:35:54.037Z,20.76
2018-08-20T06:37:04.194Z,20.78
2018-08-20T06:38:13.961Z,20.81
2018-08-20T06:39:24.161Z,20.76
2018-08-20T06:40:34.362Z,20.71
2018-08-20T06:41:44.636Z,20.64
2018-08-20T06:42:54.818Z,20.63
2018-08-20T06:44:05.059Z,20.63
2018-08-20T06:45:15.300Z,20.56
2018-08-20T06:46:25.466Z,20.56
2018-08-20T06:47:35.667Z,20.57
2018-08-20T06:48:46.067Z,20.57
2018-08-20T06:49:56.266Z,20.61
2018-08-20T06:51:06.183Z,20.72
2018-08-20T06:52:16.082Z,20.66
2018-08-20T06:53:26.232Z,20.68
2018-08-20T06:54:36.569Z,20.78
2018-08-20T06:55:46.414Z,20.78
2018-08-20T06:56:56.586Z,20.76
2018-08-20T06:58:06.600Z,20.86
2018-08-20T06:59:17.731Z,20.85
2018-08-20T07:00:27.892Z,20.85
2018-08-20T07:01:38.308Z,20.85
2018-08-20T07:02:48.550Z,20.98
2018-08-20T07:03:58.686Z,20.9
2018-08-20T07:05:08.867Z,21
2018-08-20T07:06:20.216Z,21.06
2018-08-20T07:07:30.563Z,21.12
2018-08-20T07:08:40.697Z,21.13
2018-08-20T07:09:50.595Z,21.09
2018-08-20T07:11:00.743Z,21.1
2018-08-20T07:12:10.936Z,21.13
2018-08-20T07:13:21.074Z,21.18
2018-08-20T07:14:31.229Z,21.16
2018-08-20T07:15:41.353Z,21.23
2018-08-20T07:16:51.510Z,21.22
2018-08-20T07:18:01.697Z,21.2
2018-08-20T07:19:11.884Z,21.22
2018-08-20T07:20:22.052Z,21.3
2018-08-20T07:21:32.205Z,21.23
2018-08-20T07:22:42.430Z,21.19
2018-08-20T07:23:53.012Z,21.19
2018-08-20T07:25:03.496Z,21.25
2018-08-20T07:26:13.390Z,21.19
2018-08-20T07:27:23.541Z,21.16
2018-08-20T07:28:33.561Z,21.19
2018-08-20T07:29:43.723Z,21.18
2018-08-20T07:30:53.618Z,21.16
2018-08-20T07:32:03.756Z,21.16
2018-08-20T07:33:13.641Z,21.16
2018-08-20T07:34:23.797Z,21.27
2018-08-20T07:35:33.865Z,21.2
2018-08-20T07:36:44.265Z,21.18
2018-08-20T07:37:54.186Z,21.19
2018-08-20T07:39:04.343Z,21.22
2018-08-20T07:40:14.543Z,21.12
2018-08-20T07:41:24.683Z,21.2
2018-08-20T07:42:34.961Z,21.12
2018-08-20T07:43:45.438Z,21.08
2018-08-20T07:44:55.731Z,21.12
2018-08-20T07:46:05.918Z,21.27
2018-08-20T07:47:16.052Z,21.22
2018-08-20T07:48:26.199Z,21.13
2018-08-20T07:49:35.970Z,21.12
2018-08-20T07:50:46.223Z,21.19
2018-08-20T07:51:56.690Z,21.16
2018-08-20T07:53:06.869Z,21.09
2018-08-20T07:54:17.032Z,21.19
2018-08-20T07:55:27.306Z,21.23
2018-08-20T07:56:37.485Z,21.2
2018-08-20T07:57:47.637Z,21.3
2018-08-20T07:58:57.786Z,21.3
2018-08-20T08:00:07.962Z,21.4
2018-08-20T08:01:18.112Z,21.34
2018-08-20T08:02:28.241Z,21.38
2018-08-20T08:03:38.159Z,21.54
2018-08-20T08:04:47.941Z,21.53
2018-08-20T08:05:57.716Z,21.53
2018-08-20T08:07:07.902Z,21.53
2018-08-20T08:08:18.040Z,21.56
2018-08-20T08:09:28.238Z,21.6
2018-08-20T08:10:38.390Z,21.53
2018-08-20T08:11:48.594Z,21.57
2018-08-20T08:12:58.722Z,21.41
2018-08-20T08:14:08.970Z,21.41
2018-08-20T08:15:19.179Z,21.46
2018-08-20T08:16:29.098Z,21.49
2018-08-20T08:17:39.277Z,21.57
2018-08-20T08:18:49.059Z,21.54
2018-08-20T08:19:59.633Z,21.58
2018-08-20T08:21:09.657Z,21.57
2018-08-20T08:22:19.806Z,21.64
2018-08-20T08:23:29.980Z,21.68
2018-08-20T08:24:40.194Z,21.64
2018-08-20T08:25:50.438Z,21.68
2018-08-20T08:27:00.701Z,21.73
2018-08-20T08:28:10.954Z,21.76
2018-08-20T08:29:20.843Z,21.76
2018-08-20T08:30:30.977Z,21.75
2018-08-20T08:31:42.148Z,21.76
2018-08-20T08:32:52.319Z,21.81
2018-08-20T08:34:02.475Z,21.87
2018-08-20T08:35:12.673Z,21.86
2018-08-20T08:36:22.832Z,21.88
2018-08-20T08:37:33.071Z,21.94
2018-08-20T08:38:43.303Z,21.97
2018-08-20T08:39:53.433Z,21.9
2018-08-20T08:41:03.647Z,22.01
2018-08-20T08:42:13.823Z,21.98
2018-08-20T08:43:23.786Z,22.02
2018-08-20T08:44:33.971Z,22.02
2018-08-20T08:45:44.200Z,21.98
2018-08-20T08:46:54.389Z,21.98
2018-08-20T08:48:04.272Z,21.97
2018-08-20T08:49:14.263Z,22.05
2018-08-20T08:50:24.274Z,22.01
2018-08-20T08:51:34.414Z,22.08
2018-08-20T08:52:44.617Z,22.06
2018-08-20T08:53:54.752Z,21.94
2018-08-20T08:55:04.995Z,21.87
2018-08-20T08:56:15.332Z,21.91
2018-08-20T08:57:25.475Z,21.9
2018-08-20T08:58:35.702Z,21.91
2018-08-20T08:59:45.919Z,21.96
2018-08-20T09:00:56.122Z,21.93
2018-08-20T09:02:06.038Z,21.94
2018-08-20T09:03:16.172Z,21.94
2018-08-20T09:04:26.334Z,21.97
2018-08-20T09:05:36.229Z,21.96
2018-08-20T09:06:46.391Z,21.94
2018-08-20T09:07:56.319Z,21.97
2018-08-20T09:09:06.244Z,21.97
2018-08-20T09:10:16.433Z,22.02
2018-08-20T09:11:26.559Z,22.08
2018-08-20T09:12:36.787Z,22.08
2018-08-20T09:13:47.227Z,22.2
2018-08-20T09:14:57.352Z,22.2
2018-08-20T09:16:08.499Z,22.24
2018-08-20T09:17:18.707Z,22.28
2018-08-20T09:18:28.948Z,22.35
2018-08-20T09:19:39.744Z,22.33
2018-08-20T09:20:49.949Z,22.45
2018-08-20T09:21:59.834Z,22.48
2018-08-20T09:23:09.986Z,22.45
2018-08-20T09:24:19.753Z,22.45
2018-08-20T09:25:29.724Z,22.43
2018-08-20T09:26:40.030Z,22.39
2018-08-20T09:27:50.197Z,22.49
2018-08-20T09:29:00.400Z,22.49
2018-08-20T09:30:10.333Z,22.45
2018-08-20T09:31:20.467Z,22.4
2018-08-20T09:32:30.442Z,22.33
2018-08-20T09:33:40.487Z,22.35
2018-08-20T09:34:50.626Z,22.24
2018-08-20T09:36:00.848Z,22.24
2018-08-20T09:37:11.024Z,22.23
2018-08-20T09:38:21.419Z,22.27
2018-08-20T09:39:31.958Z,22.24
2018-08-20T09:40:42.133Z,22.23
2018-08-20T09:41:52.551Z,22.26
2018-08-20T09:43:02.729Z,22.23
2018-08-20T09:44:12.508Z,22.27
2018-08-20T09:45:22.393Z,22.28
2018-08-20T09:46:32.666Z,22.34
2018-08-20T09:47:42.874Z,22.26
2018-08-20T09:48:53.014Z,22.23
2018-08-20T09:50:03.169Z,22.28
2018-08-20T09:51:13.355Z,22.34
2018-08-20T09:52:23.492Z,22.24
2018-08-20T09:53:33.888Z,22.18
2018-08-20T09:54:44.028Z,22.34
2018-08-20T09:55:54.170Z,22.23
2018-08-20T09:57:04.347Z,22.15
2018-08-20T09:58:14.232Z,22.08
2018-08-20T09:59:24.124Z,22.01
2018-08-20T10:00:34.253Z,21.98
2018-08-20T10:01:44.420Z,21.94
2018-08-20T10:02:54.544Z,21.84
2018-08-20T10:04:04.713Z,21.9
2018-08-20T10:05:14.851Z,21.75
2018-08-20T10:06:25.145Z,21.78
2018-08-20T10:07:35.532Z,21.78
2018-08-20T10:08:46.403Z,21.75
2018-08-20T10:09:56.737Z,21.83
2018-08-20T10:11:06.659Z,21.87
2018-08-20T10:12:16.558Z,21.84
2018-08-20T10:13:26.732Z,21.91
2018-08-20T10:14:36.865Z,21.96
2018-08-20T10:15:47.208Z,22.02
2018-08-20T10:16:57.439Z,22.02
2018-08-20T10:18:07.604Z,21.98
2018-08-20T10:19:17.742Z,22.02
2018-08-20T10:20:27.879Z,22.01
2018-08-20T10:21:38.018Z,22.05
2018-08-20T10:22:48.169Z,22.05
2018-08-20T10:23:57.999Z,21.96
2018-08-20T10:25:08.185Z,22.08
2018-08-20T10:26:18.432Z,22.08
2018-08-20T10:27:28.660Z,22.11
2018-08-20T10:28:38.859Z,22.15
2018-08-20T10:29:49.041Z,22.06
2018-08-20T10:30:59.247Z,22.11
2018-08-20T10:32:09.317Z,22.2
2018-08-20T10:33:19.747Z,22.23
2018-08-20T10:34:29.745Z,22.16
2018-08-20T10:35:39.925Z,22.23
2018-08-20T10:36:50.057Z,22.31
2018-08-20T10:38:00.564Z,22.2
2018-08-20T10:39:11.263Z,22.24
2018-08-20T10:40:21.478Z,22.31
2018-08-20T10:41:31.691Z,22.23
2018-08-20T10:42:41.853Z,22.18
2018-08-20T10:43:52.227Z,22.18
2018-08-20T10:45:02.269Z,22.13
2018-08-20T10:46:12.417Z,22.23
2018-08-20T10:47:22.589Z,22.2
2018-08-20T10:48:32.757Z,22.26
2018-08-20T10:49:42.915Z,22.35
2018-08-20T10:50:52.788Z,22.34
2018-08-20T10:52:02.654Z,22.3
2018-08-20T10:53:12.796Z,22.3
2018-08-20T10:54:22.947Z,22.31
2018-08-20T10:55:32.963Z,22.45
2018-08-20T10:56:43.148Z,22.4
2018-08-20T10:57:52.790Z,22.46
2018-08-20T10:59:03.047Z,22.43
2018-08-20T11:00:13.006Z,22.4
2018-08-20T11:01:23.197Z,22.43
2018-08-20T11:02:33.342Z,22.55
2018-08-20T11:03:43.234Z,22.61
2018-08-20T11:04:53.370Z,22.5
2018-08-20T11:06:03.564Z,22.5
2018-08-20T11:07:13.694Z,22.58
2018-08-20T11:08:23.880Z,22.5
2018-08-20T11:09:34.025Z,22.6
2018-08-20T11:10:43.868Z,22.65
2018-08-20T11:11:54.162Z,22.71
2018-08-20T11:13:04.046Z,22.87
2018-08-20T11:14:14.196Z,22.95
2018-08-20T11:15:24.349Z,22.99
2018-08-20T11:16:34.531Z,23.13
2018-08-20T11:17:44.719Z,23.14
2018-08-20T11:18:55.441Z,23.16
2018-08-20T11:20:05.732Z,23.18
2018-08-20T11:21:16.640Z,23.09
2018-08-20T11:22:26.422Z,23.03
2018-08-20T11:23:36.564Z,23.05
2018-08-20T11:24:46.699Z,23.05
2018-08-20T11:25:56.612Z,23.03
2018-08-20T11:27:07.012Z,23.13
2018-08-20T11:28:17.157Z,23.09
2018-08-20T11:29:27.468Z,23.03
2018-08-20T11:30:37.775Z,23.01
2018-08-20T11:31:47.967Z,23.01
2018-08-20T11:32:58.267Z,23.06
2018-08-20T11:34:08.442Z,22.99
2018-08-20T11:35:18.797Z,23.02
2018-08-20T11:36:28.986Z,23.03
2018-08-20T11:37:39.199Z,23.01
2018-08-20T11:38:49.357Z,23.02
2018-08-20T11:39:59.594Z,23.03
2018-08-20T11:41:09.737Z,23.2
2018-08-20T11:42:19.923Z,23.09
2018-08-20T11:43:30.106Z,23.17
2018-08-20T11:44:40.441Z,23.16
2018-08-20T11:45:50.918Z,23.25
2018-08-20T11:47:01.129Z,23.38
2018-08-20T11:48:11.289Z,23.32
2018-08-20T11:49:21.727Z,23.24
2018-08-20T11:50:31.873Z,23.31
2018-08-20T11:51:42.044Z,23.33
2018-08-20T11:52:52.011Z,23.42
2018-08-20T11:54:02.364Z,23.39
2018-08-20T11:55:12.427Z,23.48
2018-08-20T11:56:22.588Z,23.46
2018-08-20T11:57:32.489Z,23.5
2018-08-20T11:58:42.643Z,23.54
2018-08-20T11:59:52.790Z,23.5
2018-08-20T12:01:03.007Z,23.55
2018-08-20T12:02:13.166Z,23.54
2018-08-20T12:03:23.407Z,23.54
2018-08-20T12:04:33.283Z,23.55
2018-08-20T12:05:43.423Z,23.5
2018-08-20T12:06:53.691Z,23.58
2018-08-20T12:08:04.012Z,23.58
2018-08-20T12:09:14.179Z,23.57
2018-08-20T12:10:24.091Z,23.65
2018-08-20T12:11:34.237Z,23.68
2018-08-20T12:12:44.418Z,23.7
2018-08-20T12:13:54.575Z,23.75
2018-08-20T12:15:04.744Z,23.73
2018-08-20T12:16:15.943Z,23.65
2018-08-20T12:17:25.922Z,23.69
2018-08-20T12:18:35.841Z,23.58
2018-08-20T12:19:46.084Z,23.72
2018-08-20T12:20:56.298Z,23.65
2018-08-20T12:22:06.616Z,23.54
2018-08-20T12:23:16.729Z,23.53
2018-08-20T12:24:26.812Z,23.4
2018-08-20T12:25:36.953Z,23.39
2018-08-20T12:26:48.069Z,23.32
2018-08-20T12:27:58.227Z,23.2
2018-08-20T12:29:08.450Z,23.21
2018-08-20T12:30:18.581Z,23.18
2018-08-20T12:31:28.737Z,23.11
2018-08-20T12:32:38.949Z,23.11
2018-08-20T12:33:49.162Z,23.05
2018-08-20T12:34:59.402Z,23.05
2018-08-20T12:36:09.616Z,23.02
2018-08-20T12:37:19.882Z,23.02
2018-08-20T12:38:30.042Z,23.02
2018-08-20T12:39:40.232Z,23.06
2018-08-20T12:40:50.495Z,23.01
2018-08-20T12:42:00.496Z,23.08
2018-08-20T12:43:10.646Z,23.03
2018-08-20T12:44:20.807Z,23.05
2018-08-20T12:45:30.981Z,23.16
2018-08-20T12:46:42.118Z,23.17
2018-08-20T12:47:52.370Z,23.09
2018-08-20T12:49:02.630Z,23.18
2018-08-20T12:50:12.820Z,23.18
2018-08-20T12:51:23.026Z,23.24
2018-08-20T12:52:33.298Z,23.25
2018-08-20T12:53:43.496Z,23.31
2018-08-20T12:54:53.653Z,23.33
2018-08-20T12:56:03.868Z,23.36
2018-08-20T12:57:14.340Z,23.36
2018-08-20T12:58:24.547Z,23.39
2018-08-20T12:59:34.698Z,23.42
2018-08-20T13:00:45.038Z,23.45
2018-08-20T13:01:55.274Z,23.42
2018-08-20T13:03:05.510Z,23.42
2018-08-20T13:04:15.703Z,23.36
2018-08-20T13:05:25.499Z,23.35
2018-08-20T13:06:35.684Z,23.32
2018-08-20T13:07:45.829Z,23.39
2018-08-20T13:08:56.309Z,23.35
2018-08-20T13:10:07.785Z,23.4
2018-08-20T13:11:18.914Z,23.43
2018-08-20T13:12:29.071Z,23.51
2018-08-20T13:13:39.233Z,23.57
2018-08-20T13:14:49.406Z,23.57
2018-08-20T13:15:59.818Z,23.53
2018-08-20T13:17:10.623Z,23.51
2018-08-20T13:18:20.443Z,23.38
2018-08-20T13:19:30.633Z,23.32
2018-08-20T13:20:40.824Z,23.45
2018-08-20T13:21:50.958Z,23.42
2018-08-20T13:23:01.183Z,23.35
2018-08-20T13:24:11.377Z,23.42
2018-08-20T13:25:21.253Z,23.45
2018-08-20T13:26:31.407Z,23.5
2018-08-20T13:27:41.576Z,23.54
2018-08-20T13:28:51.591Z,23.53
2018-08-20T13:30:02.737Z,23.46
2018-08-20T13:31:12.639Z,23.51
2018-08-20T13:32:22.570Z,23.46
2018-08-20T13:33:32.750Z,23.4
2018-08-20T13:34:42.922Z,23.32
2018-08-20T13:35:53.840Z,23.2
2018-08-20T13:37:03.743Z,23.16
2018-08-20T13:38:13.950Z,23.05
2018-08-20T13:39:24.093Z,23.02
2018-08-20T13:40:34.519Z,22.95
2018-08-20T13:41:44.886Z,22.79
2018-08-20T13:42:55.153Z,22.64
2018-08-20T13:44:05.639Z,22.61
2018-08-20T13:45:16.047Z,22.58
2018-08-20T13:46:26.195Z,22.48
2018-08-20T13:47:36.382Z,22.38
2018-08-20T13:48:46.531Z,22.34
2018-08-20T13:49:56.329Z,22.24
2018-08-20T13:51:06.538Z,22.27
2018-08-20T13:52:16.713Z,22.3
2018-08-20T13:53:26.945Z,22.31
2018-08-20T13:54:37.092Z,22.26
2018-08-20T13:55:47.279Z,22.24
2018-08-20T13:56:57.488Z,22.33
2018-08-20T13:58:07.704Z,22.26
2018-08-20T13:59:18.036Z,22.23
2018-08-20T14:00:27.960Z,22.38
2018-08-20T14:01:38.101Z,22.33
2018-08-20T14:02:47.997Z,22.18
2018-08-20T14:03:58.154Z,22.3
2018-08-20T14:05:08.329Z,22.26
2018-08-20T14:06:18.147Z,22.28
2018-08-20T14:07:28.332Z,22.34
2018-08-20T14:08:38.491Z,22.39
2018-08-20T14:09:48.634Z,22.33
2018-08-20T14:10:58.568Z,22.35
2018-08-20T14:12:08.797Z,22.42
2018-08-20T14:13:19.096Z,22.34
2018-08-20T14:14:29.108Z,22.42
2018-08-20T14:15:39.463Z,22.42
2018-08-20T14:16:49.907Z,22.49
2018-08-20T14:18:00.277Z,22.42
2018-08-20T14:19:10.468Z,22.58
2018-08-20T14:20:20.401Z,22.57
2018-08-20T14:21:30.557Z,22.61
2018-08-20T14:22:40.691Z,22.53
2018-08-20T14:23:50.873Z,22.63
2018-08-20T14:25:00.865Z,22.61
2018-08-20T14:26:11.209Z,22.61
2018-08-20T14:27:21.379Z,22.58
2018-08-20T14:28:31.533Z,22.6
2018-08-20T14:29:41.459Z,22.61
2018-08-20T14:30:51.369Z,22.6
2018-08-20T14:32:01.389Z,22.49
2018-08-20T14:33:11.555Z,22.55
2018-08-20T14:34:21.719Z,22.64
2018-08-20T14:35:31.859Z,22.65
2018-08-20T14:36:42.544Z,22.63
2018-08-20T14:37:52.889Z,22.46
2018-08-20T14:39:03.031Z,22.49
2018-08-20T14:40:12.986Z,22.65
2018-08-20T14:41:23.122Z,22.67
2018-08-20T14:42:33.527Z,22.65
2018-08-20T14:43:43.750Z,22.71
2018-08-20T14:44:53.926Z,22.67
2018-08-20T14:46:03.852Z,22.7
2018-08-20T14:47:14.055Z,22.75
2018-08-20T14:48:24.211Z,22.71
2018-08-20T14:49:33.858Z,22.7
2018-08-20T14:50:44.051Z,22.78
2018-08-20T14:51:54.429Z,22.68
2018-08-20T14:53:04.589Z,22.71
2018-08-20T14:54:14.762Z,22.67
2018-08-20T14:55:24.926Z,22.67
2018-08-20T14:56:35.090Z,22.6
2018-08-20T14:57:45.225Z,22.65
2018-08-20T14:58:55.164Z,22.63
2018-08-20T15:00:05.350Z,22.61
2018-08-20T15:01:15.539Z,22.63
2018-08-20T15:02:25.972Z,22.64
2018-08-20T15:03:35.991Z,22.61
2018-08-20T15:04:46.192Z,22.64
2018-08-20T15:05:56.112Z,22.63
2018-08-20T15:07:06.035Z,22.61